Lagoa dos Gatos, Brazil
Current Conditions -  °F | °C
As of 11:00 PM on Friday 28 Nov 2014 (Local Time) from SBMO Reporting Station
Scattered Clouds Scattered Clouds  
Wind Chill: 73°   Ceiling: Unl
Heat Index: 73°   Visibility: 6mi
Dew Point: 73°   Wind: 5mph
Humidity: 100%   Direction: 90°E
Pressure: 29.97"   Gusts: NA
Location:  8.66°S, 35.9°W
Report Text: SBMO 290200Z 09004KT 9999 SCT020 SCT070 23/23 Q1015
Loading
Personal Weather Stations






























Interactive Weather Map New forecast layout! Learn more

10-Day Weather Forecast

Advertisements
Track Severe Weather on mobile